sensor_id;sensor_type;location;lat;lon;timestamp;P1;durP1;ratioP1;P2;durP2;ratioP2
2129;SDS011;1071;52.544;13.374;2023-07-08T00:00:37;5.60;;;5.20;;
2129;SDS011;1071;52.544;13.374;2023-07-08T00:03:04;5.90;;;5.50;;
2129;SDS011;1071;52.544;13.374;2023-07-08T00:05:31;5.87;;;5.47;;
2129;SDS011;1071;52.544;13.374;2023-07-08T00:08:00;6.20;;;5.70;;
2129;SDS011;1071;52.544;13.374;2023-07-08T00:10:27;5.40;;;5.00;;
2129;SDS011;1071;52.544;13.374;2023-07-08T00:12:56;4.90;;;4.50;;
2129;SDS011;1071;52.544;13.374;2023-07-08T00:15:25;6.23;;;5.73;;
2129;SDS011;1071;52.544;13.374;2023-07-08T00:17:54;5.53;;;5.10;;
2129;SDS011;1071;52.544;13.374;2023-07-08T00:20:22;6.37;;;5.90;;
2129;SDS011;1071;52.544;13.374;2023-07-08T00:22:56;6.10;;;5.60;;
2129;SDS011;1071;52.544;13.374;2023-07-08T00:25:27;6.90;;;6.30;;
2129;SDS011;1071;52.544;13.374;2023-07-08T00:27:53;6.37;;;5.77;;
2129;SDS011;1071;52.544;13.374;2023-07-08T00:30:21;6.87;;;6.27;;
2129;SDS011;1071;52.544;13.374;2023-07-08T00:32:53;6.30;;;5.80;;
2129;SDS011;1071;52.544;13.374;2023-07-08T00:35:22;7.27;;;6.57;;
2129;SDS011;1071;52.544;13.374;2023-07-08T00:37:52;7.63;;;5.80;;
2129;SDS011;1071;52.544;13.374;2023-07-08T00:40:28;7.33;;;6.63;;
2129;SDS011;1071;52.544;13.374;2023-07-08T00:42:56;6.70;;;6.10;;
2129;SDS011;1071;52.544;13.374;2023-07-08T00:45:30;7.20;;;6.50;;
2129;SDS011;1071;52.544;13.374;2023-07-08T00:48:07;7.30;;;6.70;;
2129;SDS011;1071;52.544;13.374;2023-07-08T00:50:38;7.20;;;6.60;;
2129;SDS011;1071;52.544;13.374;2023-07-08T00:53:24;6.63;;;6.13;;
2129;SDS011;1071;52.544;13.374;2023-07-08T00:55:55;7.43;;;6.73;;
2129;SDS011;1071;52.544;13.374;2023-07-08T00:58:30;6.63;;;6.10;;
2129;SDS011;1071;52.544;13.374;2023-07-08T01:00:59;7.20;;;6.60;;
2129;SDS011;1071;52.544;13.374;2023-07-08T01:03:30;6.93;;;5.63;;
2129;SDS011;1071;52.544;13.374;2023-07-08T01:05:59;6.00;;;5.50;;
2129;SDS011;1071;52.544;13.374;2023-07-08T01:08:27;7.53;;;7.00;;
2129;SDS011;1071;52.544;13.374;2023-07-08T01:10:57;7.33;;;6.70;;
2129;SDS011;1071;52.544;13.374;2023-07-08T01:13:27;8.23;;;7.53;;
2129;SDS011;1071;52.544;13.374;2023-07-08T01:15:58;7.97;;;7.17;;
2129;SDS011;1071;52.544;13.374;2023-07-08T01:18:25;7.40;;;6.80;;
2129;SDS011;1071;52.544;13.374;2023-07-08T01:20:52;6.13;;;5.63;;
2129;SDS011;1071;52.544;13.374;2023-07-08T01:23:22;6.83;;;6.23;;
2129;SDS011;1071;52.544;13.374;2023-07-08T01:25:50;7.13;;;6.43;;
2129;SDS011;1071;52.544;13.374;2023-07-08T01:28:18;6.40;;;5.80;;
2129;SDS011;1071;52.544;13.374;2023-07-08T01:30:45;7.37;;;6.77;;
2129;SDS011;1071;52.544;13.374;2023-07-08T01:33:15;10.27;;;9.20;;
2129;SDS011;1071;52.544;13.374;2023-07-08T01:35:45;8.20;;;7.33;;
2129;SDS011;1071;52.544;13.374;2023-07-08T01:38:14;7.60;;;7.00;;
2129;SDS011;1071;52.544;13.374;2023-07-08T01:40:51;6.63;;;6.03;;
2129;SDS011;1071;52.544;13.374;2023-07-08T01:43:19;7.13;;;5.17;;
2129;SDS011;1071;52.544;13.374;2023-07-08T01:45:46;5.20;;;4.80;;
2129;SDS011;1071;52.544;13.374;2023-07-08T01:48:15;5.57;;;5.17;;
2129;SDS011;1071;52.544;13.374;2023-07-08T01:50:46;4.37;;;3.97;;
2129;SDS011;1071;52.544;13.374;2023-07-08T01:53:16;4.80;;;4.50;;
2129;SDS011;1071;52.544;13.374;2023-07-08T01:55:45;5.33;;;4.93;;
2129;SDS011;1071;52.544;13.374;2023-07-08T01:58:17;5.30;;;4.87;;
2129;SDS011;1071;52.544;13.374;2023-07-08T02:00:43;5.70;;;5.10;;
2129;SDS011;1071;52.544;13.374;2023-07-08T02:03:13;5.80;;;5.30;;
2129;SDS011;1071;52.544;13.374;2023-07-08T02:05:41;5.73;;;5.23;;
2129;SDS011;1071;52.544;13.374;2023-07-08T02:08:08;5.23;;;4.83;;
2129;SDS011;1071;52.544;13.374;2023-07-08T02:10:36;5.10;;;4.80;;
2129;SDS011;1071;52.544;13.374;2023-07-08T02:13:03;5.60;;;5.10;;
2129;SDS011;1071;52.544;13.374;2023-07-08T02:15:31;5.90;;;5.40;;
2129;SDS011;1071;52.544;13.374;2023-07-08T02:17:58;5.50;;;5.00;;
2129;SDS011;1071;52.544;13.374;2023-07-08T02:20:25;6.20;;;5.70;;
2129;SDS011;1071;52.544;13.374;2023-07-08T02:22:52;6.17;;;5.40;;
2129;SDS011;1071;52.544;13.374;2023-07-08T02:25:19;5.43;;;5.00;;
2129;SDS011;1071;52.544;13.374;2023-07-08T02:27:46;5.03;;;4.63;;
2129;SDS011;1071;52.544;13.374;2023-07-08T02:30:13;5.67;;;5.17;;
2129;SDS011;1071;52.544;13.374;2023-07-08T02:32:41;6.17;;;4.70;;
2129;SDS011;1071;52.544;13.374;2023-07-08T02:35:13;5.70;;;5.20;;
2129;SDS011;1071;52.544;13.374;2023-07-08T02:37:40;5.33;;;4.83;;
2129;SDS011;1071;52.544;13.374;2023-07-08T02:40:08;5.20;;;4.70;;
2129;SDS011;1071;52.544;13.374;2023-07-08T02:42:36;5.20;;;4.80;;
2129;SDS011;1071;52.544;13.374;2023-07-08T02:45:05;4.93;;;4.53;;
2129;SDS011;1071;52.544;13.374;2023-07-08T02:47:32;5.50;;;5.00;;
2129;SDS011;1071;52.544;13.374;2023-07-08T02:50:01;4.80;;;4.33;;
2129;SDS011;1071;52.544;13.374;2023-07-08T02:52:28;4.40;;;4.03;;
2129;SDS011;1071;52.544;13.374;2023-07-08T02:54:54;6.33;;;5.53;;
2129;SDS011;1071;52.544;13.374;2023-07-08T02:57:22;5.67;;;5.17;;
2129;SDS011;1071;52.544;13.374;2023-07-08T02:59:49;5.13;;;4.70;;
2129;SDS011;1071;52.544;13.374;2023-07-08T03:02:16;5.00;;;4.60;;
2129;SDS011;1071;52.544;13.374;2023-07-08T03:04:42;4.50;;;4.20;;
2129;SDS011;1071;52.544;13.374;2023-07-08T03:07:16;4.93;;;4.53;;
2129;SDS011;1071;52.544;13.374;2023-07-08T03:09:43;5.80;;;5.40;;
2129;SDS011;1071;52.544;13.374;2023-07-08T03:12:11;7.33;;;6.73;;
2129;SDS011;1071;52.544;13.374;2023-07-08T03:14:38;6.47;;;5.63;;
2129;SDS011;1071;52.544;13.374;2023-07-08T03:17:05;9.43;;;6.27;;
2129;SDS011;1071;52.544;13.374;2023-07-08T03:19:32;9.57;;;5.67;;
2129;SDS011;1071;52.544;13.374;2023-07-08T03:22:02;5.80;;;5.30;;
2129;SDS011;1071;52.544;13.374;2023-07-08T03:24:31;7.20;;;5.50;;
2129;SDS011;1071;52.544;13.374;2023-07-08T03:26:58;6.60;;;5.47;;
2129;SDS011;1071;52.544;13.374;2023-07-08T03:29:30;8.13;;;6.63;;
2129;SDS011;1071;52.544;13.374;2023-07-08T03:31:57;5.53;;;5.03;;
2129;SDS011;1071;52.544;13.374;2023-07-08T03:34:25;6.17;;;5.57;;
2129;SDS011;1071;52.544;13.374;2023-07-08T03:36:52;6.13;;;5.57;;
2129;SDS011;1071;52.544;13.374;2023-07-08T03:39:19;5.90;;;5.30;;
2129;SDS011;1071;52.544;13.374;2023-07-08T03:41:49;5.90;;;5.40;;
2129;SDS011;1071;52.544;13.374;2023-07-08T03:44:17;5.73;;;5.33;;
2129;SDS011;1071;52.544;13.374;2023-07-08T03:46:45;5.10;;;4.70;;
2129;SDS011;1071;52.544;13.374;2023-07-08T03:49:17;7.00;;;5.87;;
2129;SDS011;1071;52.544;13.374;2023-07-08T03:51:48;5.07;;;4.67;;
2129;SDS011;1071;52.544;13.374;2023-07-08T03:54:17;6.83;;;5.53;;
2129;SDS011;1071;52.544;13.374;2023-07-08T03:56:45;6.20;;;5.70;;
2129;SDS011;1071;52.544;13.374;2023-07-08T03:59:14;5.80;;;5.20;;
2129;SDS011;1071;52.544;13.374;2023-07-08T04:01:41;5.83;;;5.33;;
2129;SDS011;1071;52.544;13.374;2023-07-08T04:04:08;5.30;;;4.90;;
2129;SDS011;1071;52.544;13.374;2023-07-08T04:06:39;6.47;;;5.53;;
2129;SDS011;1071;52.544;13.374;2023-07-08T04:09:07;6.57;;;5.27;;
2129;SDS011;1071;52.544;13.374;2023-07-08T04:11:34;5.90;;;5.40;;
2129;SDS011;1071;52.544;13.374;2023-07-08T04:14:02;5.30;;;4.83;;
2129;SDS011;1071;52.544;13.374;2023-07-08T04:16:33;6.00;;;5.40;;
2129;SDS011;1071;52.544;13.374;2023-07-08T04:19:10;6.60;;;4.50;;
2129;SDS011;1071;52.544;13.374;2023-07-08T04:21:39;6.80;;;5.20;;
2129;SDS011;1071;52.544;13.374;2023-07-08T04:24:08;5.87;;;5.27;;
2129;SDS011;1071;52.544;13.374;2023-07-08T04:26:36;5.30;;;4.90;;
2129;SDS011;1071;52.544;13.374;2023-07-08T04:29:04;5.07;;;4.67;;
2129;SDS011;1071;52.544;13.374;2023-07-08T04:31:33;5.80;;;5.13;;
2129;SDS011;1071;52.544;13.374;2023-07-08T04:34:00;4.93;;;4.53;;
2129;SDS011;1071;52.544;13.374;2023-07-08T04:36:27;6.20;;;4.80;;
2129;SDS011;1071;52.544;13.374;2023-07-08T04:38:54;5.00;;;4.70;;
2129;SDS011;1071;52.544;13.374;2023-07-08T04:41:22;6.63;;;5.40;;
2129;SDS011;1071;52.544;13.374;2023-07-08T04:43:52;5.00;;;4.60;;
2129;SDS011;1071;52.544;13.374;2023-07-08T04:46:24;4.97;;;4.57;;
2129;SDS011;1071;52.544;13.374;2023-07-08T04:49:03;4.83;;;4.53;;
2129;SDS011;1071;52.544;13.374;2023-07-08T04:51:31;5.37;;;4.87;;
2129;SDS011;1071;52.544;13.374;2023-07-08T04:53:58;4.60;;;4.30;;
2129;SDS011;1071;52.544;13.374;2023-07-08T04:56:26;4.40;;;4.00;;
2129;SDS011;1071;52.544;13.374;2023-07-08T04:59:02;3.97;;;3.70;;
2129;SDS011;1071;52.544;13.374;2023-07-08T05:01:30;4.77;;;4.37;;
2129;SDS011;1071;52.544;13.374;2023-07-08T05:03:58;3.70;;;3.50;;
2129;SDS011;1071;52.544;13.374;2023-07-08T05:06:27;4.73;;;4.33;;
2129;SDS011;1071;52.544;13.374;2023-07-08T05:08:54;5.07;;;4.03;;
2129;SDS011;1071;52.544;13.374;2023-07-08T05:11:21;4.73;;;4.33;;
2129;SDS011;1071;52.544;13.374;2023-07-08T05:13:48;4.40;;;4.10;;
2129;SDS011;1071;52.544;13.374;2023-07-08T05:16:15;5.17;;;4.67;;
2129;SDS011;1071;52.544;13.374;2023-07-08T05:18:44;4.70;;;4.20;;
2129;SDS011;1071;52.544;13.374;2023-07-08T05:21:11;4.30;;;4.00;;
2129;SDS011;1071;52.544;13.374;2023-07-08T05:23:40;4.90;;;4.57;;
2129;SDS011;1071;52.544;13.374;2023-07-08T05:26:08;4.30;;;3.90;;
2129;SDS011;1071;52.544;13.374;2023-07-08T05:28:35;7.50;;;4.70;;
2129;SDS011;1071;52.544;13.374;2023-07-08T05:31:02;3.70;;;3.40;;
2129;SDS011;1071;52.544;13.374;2023-07-08T05:33:30;4.07;;;3.77;;
2129;SDS011;1071;52.544;13.374;2023-07-08T05:35:57;5.23;;;4.83;;
2129;SDS011;1071;52.544;13.374;2023-07-08T05:38:25;3.57;;;3.27;;
2129;SDS011;1071;52.544;13.374;2023-07-08T05:40:55;4.53;;;4.10;;
2129;SDS011;1071;52.544;13.374;2023-07-08T05:43:23;5.80;;;5.30;;
2129;SDS011;1071;52.544;13.374;2023-07-08T05:45:50;4.70;;;4.40;;
2129;SDS011;1071;52.544;13.374;2023-07-08T05:48:17;4.67;;;4.10;;
2129;SDS011;1071;52.544;13.374;2023-07-08T05:50:44;4.20;;;3.90;;
2129;SDS011;1071;52.544;13.374;2023-07-08T05:53:12;5.40;;;4.90;;
2129;SDS011;1071;52.544;13.374;2023-07-08T05:55:42;4.90;;;4.37;;
2129;SDS011;1071;52.544;13.374;2023-07-08T05:58:11;6.03;;;4.30;;
2129;SDS011;1071;52.544;13.374;2023-07-08T06:00:40;4.23;;;3.90;;
2129;SDS011;1071;52.544;13.374;2023-07-08T06:03:07;4.03;;;3.73;;
2129;SDS011;1071;52.544;13.374;2023-07-08T06:05:34;5.77;;;5.10;;
2129;SDS011;1071;52.544;13.374;2023-07-08T06:08:02;8.30;;;7.67;;
2129;SDS011;1071;52.544;13.374;2023-07-08T06:10:29;10.60;;;9.60;;
2129;SDS011;1071;52.544;13.374;2023-07-08T06:12:56;9.63;;;8.80;;
2129;SDS011;1071;52.544;13.374;2023-07-08T06:15:25;6.70;;;6.10;;
2129;SDS011;1071;52.544;13.374;2023-07-08T06:17:52;5.47;;;4.97;;
2129;SDS011;1071;52.544;13.374;2023-07-08T06:20:19;5.10;;;4.70;;
2129;SDS011;1071;52.544;13.374;2023-07-08T06:22:46;6.30;;;5.80;;
2129;SDS011;1071;52.544;13.374;2023-07-08T06:25:14;5.93;;;5.33;;
2129;SDS011;1071;52.544;13.374;2023-07-08T06:27:43;10.47;;;9.43;;
2129;SDS011;1071;52.544;13.374;2023-07-08T06:30:10;6.93;;;6.33;;
2129;SDS011;1071;52.544;13.374;2023-07-08T06:32:39;10.80;;;9.77;;
2129;SDS011;1071;52.544;13.374;2023-07-08T06:35:06;12.30;;;11.10;;
2129;SDS011;1071;52.544;13.374;2023-07-08T06:37:34;8.47;;;7.87;;
2129;SDS011;1071;52.544;13.374;2023-07-08T06:40:01;9.53;;;8.67;;
2129;SDS011;1071;52.544;13.374;2023-07-08T06:42:28;6.57;;;6.07;;
2129;SDS011;1071;52.544;13.374;2023-07-08T06:44:56;5.63;;;5.13;;
2129;SDS011;1071;52.544;13.374;2023-07-08T06:47:23;8.73;;;8.03;;
2129;SDS011;1071;52.544;13.374;2023-07-08T06:49:54;8.20;;;7.40;;
2129;SDS011;1071;52.544;13.374;2023-07-08T06:52:21;7.47;;;6.77;;
2129;SDS011;1071;52.544;13.374;2023-07-08T06:54:48;7.53;;;6.90;;
2129;SDS011;1071;52.544;13.374;2023-07-08T06:57:17;5.47;;;5.07;;
2129;SDS011;1071;52.544;13.374;2023-07-08T06:59:44;6.90;;;5.57;;
2129;SDS011;1071;52.544;13.374;2023-07-08T07:02:11;8.63;;;7.27;;
2129;SDS011;1071;52.544;13.374;2023-07-08T07:04:38;7.03;;;6.33;;
2129;SDS011;1071;52.544;13.374;2023-07-08T07:07:07;7.23;;;6.53;;
2129;SDS011;1071;52.544;13.374;2023-07-08T07:09:34;5.87;;;4.73;;
2129;SDS011;1071;52.544;13.374;2023-07-08T07:12:01;6.50;;;5.90;;
2129;SDS011;1071;52.544;13.374;2023-07-08T07:14:28;11.70;;;5.87;;
2129;SDS011;1071;52.544;13.374;2023-07-08T07:16:55;9.00;;;7.00;;
2129;SDS011;1071;52.544;13.374;2023-07-08T07:19:23;7.17;;;6.57;;
2129;SDS011;1071;52.544;13.374;2023-07-08T07:21:50;6.17;;;5.77;;
2129;SDS011;1071;52.544;13.374;2023-07-08T07:24:19;6.10;;;4.40;;
2129;SDS011;1071;52.544;13.374;2023-07-08T07:26:46;5.70;;;4.80;;
2129;SDS011;1071;52.544;13.374;2023-07-08T07:29:16;4.30;;;3.90;;
2129;SDS011;1071;52.544;13.374;2023-07-08T07:31:43;4.70;;;4.27;;
2129;SDS011;1071;52.544;13.374;2023-07-08T07:34:13;6.17;;;4.57;;
2129;SDS011;1071;52.544;13.374;2023-07-08T07:36:40;7.17;;;6.47;;
2129;SDS011;1071;52.544;13.374;2023-07-08T07:39:07;7.03;;;6.17;;
2129;SDS011;1071;52.544;13.374;2023-07-08T07:41:36;5.20;;;4.80;;
2129;SDS011;1071;52.544;13.374;2023-07-08T07:44:03;5.87;;;5.37;;
2129;SDS011;1071;52.544;13.374;2023-07-08T07:46:30;5.97;;;5.03;;
2129;SDS011;1071;52.544;13.374;2023-07-08T07:48:57;5.07;;;4.67;;
2129;SDS011;1071;52.544;13.374;2023-07-08T07:51:25;5.60;;;5.10;;
2129;SDS011;1071;52.544;13.374;2023-07-08T07:53:52;4.73;;;4.30;;
2129;SDS011;1071;52.544;13.374;2023-07-08T07:56:21;5.00;;;4.60;;
2129;SDS011;1071;52.544;13.374;2023-07-08T07:58:49;6.70;;;5.17;;
2129;SDS011;1071;52.544;13.374;2023-07-08T08:01:16;7.40;;;6.20;;
2129;SDS011;1071;52.544;13.374;2023-07-08T08:03:44;5.43;;;5.00;;
2129;SDS011;1071;52.544;13.374;2023-07-08T08:06:20;7.23;;;6.17;;
2129;SDS011;1071;52.544;13.374;2023-07-08T08:08:55;21.20;;;14.40;;
2129;SDS011;1071;52.544;13.374;2023-07-08T08:11:30;15.20;;;9.53;;
2129;SDS011;1071;52.544;13.374;2023-07-08T08:13:59;8.63;;;6.57;;
2129;SDS011;1071;52.544;13.374;2023-07-08T08:16:26;5.67;;;5.27;;
2129;SDS011;1071;52.544;13.374;2023-07-08T08:18:54;16.03;;;13.43;;
2129;SDS011;1071;52.544;13.374;2023-07-08T08:21:20;8.37;;;7.37;;
2129;SDS011;1071;52.544;13.374;2023-07-08T08:23:47;5.00;;;4.60;;
2129;SDS011;1071;52.544;13.374;2023-07-08T08:26:14;11.33;;;9.67;;
2129;SDS011;1071;52.544;13.374;2023-07-08T08:28:41;5.37;;;4.90;;
2129;SDS011;1071;52.544;13.374;2023-07-08T08:31:10;7.10;;;6.50;;
2129;SDS011;1071;52.544;13.374;2023-07-08T08:33:37;5.40;;;4.23;;
2129;SDS011;1071;52.544;13.374;2023-07-08T08:36:04;7.30;;;6.60;;
2129;SDS011;1071;52.544;13.374;2023-07-08T08:38:31;10.27;;;6.80;;
2129;SDS011;1071;52.544;13.374;2023-07-08T08:41:02;8.63;;;7.83;;
2129;SDS011;1071;52.544;13.374;2023-07-08T08:43:35;5.37;;;4.87;;
2129;SDS011;1071;52.544;13.374;2023-07-08T08:46:06;10.47;;;7.47;;
2129;SDS011;1071;52.544;13.374;2023-07-08T08:48:43;8.20;;;7.50;;
2129;SDS011;1071;52.544;13.374;2023-07-08T08:51:15;5.30;;;4.90;;
2129;SDS011;1071;52.544;13.374;2023-07-08T08:53:43;3.93;;;3.73;;
2129;SDS011;1071;52.544;13.374;2023-07-08T08:56:14;6.07;;;5.50;;
2129;SDS011;1071;52.544;13.374;2023-07-08T08:58:48;6.60;;;3.40;;
2129;SDS011;1071;52.544;13.374;2023-07-08T09:01:23;4.10;;;3.80;;
2129;SDS011;1071;52.544;13.374;2023-07-08T09:03:54;5.07;;;4.67;;
2129;SDS011;1071;52.544;13.374;2023-07-08T09:06:24;3.53;;;3.13;;
2129;SDS011;1071;52.544;13.374;2023-07-08T09:08:54;3.80;;;3.60;;
2129;SDS011;1071;52.544;13.374;2023-07-08T09:11:25;5.47;;;4.40;;
2129;SDS011;1071;52.544;13.374;2023-07-08T09:14:01;4.37;;;4.07;;
2129;SDS011;1071;52.544;13.374;2023-07-08T09:16:34;4.07;;;3.67;;
2129;SDS011;1071;52.544;13.374;2023-07-08T09:19:09;5.40;;;4.90;;
2129;SDS011;1071;52.544;13.374;2023-07-08T09:21:44;3.47;;;3.17;;
2129;SDS011;1071;52.544;13.374;2023-07-08T09:24:16;4.23;;;2.90;;
2129;SDS011;1071;52.544;13.374;2023-07-08T09:26:46;4.43;;;3.47;;
2129;SDS011;1071;52.544;13.374;2023-07-08T09:29:18;4.60;;;4.20;;
2129;SDS011;1071;52.544;13.374;2023-07-08T09:31:49;3.30;;;3.10;;
2129;SDS011;1071;52.544;13.374;2023-07-08T09:34:17;5.50;;;3.17;;
2129;SDS011;1071;52.544;13.374;2023-07-08T09:36:47;4.40;;;4.00;;
2129;SDS011;1071;52.544;13.374;2023-07-08T09:39:16;4.50;;;4.10;;
2129;SDS011;1071;52.544;13.374;2023-07-08T09:41:46;3.87;;;3.57;;
2129;SDS011;1071;52.544;13.374;2023-07-08T09:44:22;4.37;;;3.97;;
2129;SDS011;1071;52.544;13.374;2023-07-08T09:46:55;4.27;;;3.90;;
2129;SDS011;1071;52.544;13.374;2023-07-08T09:49:26;3.30;;;3.00;;
2129;SDS011;1071;52.544;13.374;2023-07-08T09:51:54;2.90;;;2.70;;
2129;SDS011;1071;52.544;13.374;2023-07-08T09:54:21;3.00;;;2.70;;
2129;SDS011;1071;52.544;13.374;2023-07-08T09:56:58;3.07;;;2.87;;
2129;SDS011;1071;52.544;13.374;2023-07-08T09:59:30;2.80;;;2.60;;
2129;SDS011;1071;52.544;13.374;2023-07-08T10:02:03;3.17;;;2.97;;
2129;SDS011;1071;52.544;13.374;2023-07-08T10:04:46;3.60;;;3.30;;
2129;SDS011;1071;52.544;13.374;2023-07-08T10:07:14;3.23;;;2.93;;
2129;SDS011;1071;52.544;13.374;2023-07-08T10:09:43;3.87;;;3.50;;
2129;SDS011;1071;52.544;13.374;2023-07-08T10:12:14;3.50;;;3.23;;
2129;SDS011;1071;52.544;13.374;2023-07-08T10:14:43;3.87;;;3.57;;
2129;SDS011;1071;52.544;13.374;2023-07-08T10:17:17;3.77;;;3.47;;
2129;SDS011;1071;52.544;13.374;2023-07-08T10:19:46;7.83;;;4.27;;
2129;SDS011;1071;52.544;13.374;2023-07-08T10:22:21;4.97;;;4.50;;
2129;SDS011;1071;52.544;13.374;2023-07-08T10:25:02;5.30;;;3.93;;
2129;SDS011;1071;52.544;13.374;2023-07-08T10:27:36;3.80;;;3.60;;
2129;SDS011;1071;52.544;13.374;2023-07-08T10:30:20;3.83;;;3.60;;
2129;SDS011;1071;52.544;13.374;2023-07-08T10:32:54;3.80;;;3.17;;
2129;SDS011;1071;52.544;13.374;2023-07-08T10:35:39;3.67;;;3.37;;
2129;SDS011;1071;52.544;13.374;2023-07-08T10:38:19;3.50;;;3.00;;
2129;SDS011;1071;52.544;13.374;2023-07-08T10:40:58;3.40;;;3.17;;
2129;SDS011;1071;52.544;13.374;2023-07-08T10:43:43;3.47;;;3.27;;
2129;SDS011;1071;52.544;13.374;2023-07-08T10:46:20;4.80;;;4.50;;
2129;SDS011;1071;52.544;13.374;2023-07-08T10:48:58;4.43;;;4.03;;
2129;SDS011;1071;52.544;13.374;2023-07-08T10:51:40;3.73;;;3.43;;
2129;SDS011;1071;52.544;13.374;2023-07-08T10:54:19;6.93;;;3.63;;
2129;SDS011;1071;52.544;13.374;2023-07-08T10:57:03;4.00;;;3.70;;
2129;SDS011;1071;52.544;13.374;2023-07-08T10:59:45;3.60;;;3.30;;
2129;SDS011;1071;52.544;13.374;2023-07-08T11:02:29;3.10;;;2.90;;
2129;SDS011;1071;52.544;13.374;2023-07-08T11:05:17;3.60;;;3.40;;
2129;SDS011;1071;52.544;13.374;2023-07-08T11:07:53;3.30;;;3.07;;
2129;SDS011;1071;52.544;13.374;2023-07-08T11:10:28;3.23;;;2.93;;
2129;SDS011;1071;52.544;13.374;2023-07-08T11:13:01;2.97;;;2.77;;
2129;SDS011;1071;52.544;13.374;2023-07-08T11:15:33;3.27;;;2.87;;
2129;SDS011;1071;52.544;13.374;2023-07-08T11:18:11;4.30;;;3.17;;
2129;SDS011;1071;52.544;13.374;2023-07-08T11:20:45;3.77;;;3.40;;
2129;SDS011;1071;52.544;13.374;2023-07-08T11:23:22;2.93;;;2.77;;
2129;SDS011;1071;52.544;13.374;2023-07-08T11:25:59;3.60;;;3.40;;
2129;SDS011;1071;52.544;13.374;2023-07-08T11:28:33;3.10;;;2.90;;
2129;SDS011;1071;52.544;13.374;2023-07-08T11:31:01;3.30;;;3.10;;
2129;SDS011;1071;52.544;13.374;2023-07-08T11:33:30;3.17;;;2.80;;
2129;SDS011;1071;52.544;13.374;2023-07-08T11:36:00;3.67;;;3.47;;
2129;SDS011;1071;52.544;13.374;2023-07-08T11:38:28;4.17;;;3.87;;
2129;SDS011;1071;52.544;13.374;2023-07-08T11:40:59;4.27;;;3.87;;
2129;SDS011;1071;52.544;13.374;2023-07-08T11:43:33;3.80;;;3.50;;
2129;SDS011;1071;52.544;13.374;2023-07-08T11:46:12;3.57;;;3.27;;
2129;SDS011;1071;52.544;13.374;2023-07-08T11:48:45;3.30;;;3.10;;
2129;SDS011;1071;52.544;13.374;2023-07-08T11:51:16;3.07;;;2.87;;
2129;SDS011;1071;52.544;13.374;2023-07-08T11:53:49;3.40;;;2.83;;
2129;SDS011;1071;52.544;13.374;2023-07-08T11:56:24;3.43;;;3.10;;
2129;SDS011;1071;52.544;13.374;2023-07-08T11:58:54;4.13;;;3.83;;
2129;SDS011;1071;52.544;13.374;2023-07-08T12:01:46;3.43;;;3.23;;
2129;SDS011;1071;52.544;13.374;2023-07-08T12:07:08;4.10;;;3.27;;
2129;SDS011;1071;52.544;13.374;2023-07-08T12:09:38;3.50;;;3.30;;
2129;SDS011;1071;52.544;13.374;2023-07-08T12:12:14;3.27;;;3.07;;
2129;SDS011;1071;52.544;13.374;2023-07-08T12:14:48;3.57;;;3.27;;
2129;SDS011;1071;52.544;13.374;2023-07-08T12:17:15;3.00;;;2.80;;
2129;SDS011;1071;52.544;13.374;2023-07-08T12:19:43;3.63;;;3.40;;
2129;SDS011;1071;52.544;13.374;2023-07-08T12:22:17;3.30;;;3.00;;
2129;SDS011;1071;52.544;13.374;2023-07-08T12:24:44;3.30;;;2.90;;
2129;SDS011;1071;52.544;13.374;2023-07-08T12:27:12;3.70;;;3.40;;
2129;SDS011;1071;52.544;13.374;2023-07-08T12:29:39;3.60;;;3.30;;
2129;SDS011;1071;52.544;13.374;2023-07-08T12:32:08;3.90;;;3.50;;
2129;SDS011;1071;52.544;13.374;2023-07-08T12:34:39;4.23;;;3.93;;
2129;SDS011;1071;52.544;13.374;2023-07-08T12:37:09;4.70;;;4.23;;
2129;SDS011;1071;52.544;13.374;2023-07-08T12:39:39;3.97;;;3.67;;
2129;SDS011;1071;52.544;13.374;2023-07-08T12:42:08;4.00;;;3.80;;
2129;SDS011;1071;52.544;13.374;2023-07-08T12:44:38;3.77;;;3.47;;
2129;SDS011;1071;52.544;13.374;2023-07-08T12:47:08;3.43;;;3.13;;
2129;SDS011;1071;52.544;13.374;2023-07-08T12:49:35;3.77;;;3.47;;
2129;SDS011;1071;52.544;13.374;2023-07-08T12:52:03;3.30;;;3.10;;
2129;SDS011;1071;52.544;13.374;2023-07-08T12:54:30;3.40;;;3.10;;
2129;SDS011;1071;52.544;13.374;2023-07-08T12:57:00;3.60;;;3.30;;
2129;SDS011;1071;52.544;13.374;2023-07-08T12:59:27;3.17;;;2.97;;
2129;SDS011;1071;52.544;13.374;2023-07-08T13:01:56;3.53;;;3.17;;
2129;SDS011;1071;52.544;13.374;2023-07-08T13:04:24;3.70;;;3.40;;
2129;SDS011;1071;52.544;13.374;2023-07-08T13:06:51;3.80;;;3.50;;
2129;SDS011;1071;52.544;13.374;2023-07-08T13:09:23;3.80;;;3.30;;
2129;SDS011;1071;52.544;13.374;2023-07-08T13:11:57;3.80;;;3.50;;
2129;SDS011;1071;52.544;13.374;2023-07-08T13:14:30;3.80;;;3.47;;
2129;SDS011;1071;52.544;13.374;2023-07-08T13:16:57;4.73;;;4.27;;
2129;SDS011;1071;52.544;13.374;2023-07-08T13:19:24;3.93;;;3.63;;
2129;SDS011;1071;52.544;13.374;2023-07-08T13:21:51;3.97;;;3.67;;
2129;SDS011;1071;52.544;13.374;2023-07-08T13:24:18;4.70;;;4.13;;
2129;SDS011;1071;52.544;13.374;2023-07-08T13:26:48;4.50;;;4.20;;
2129;SDS011;1071;52.544;13.374;2023-07-08T13:29:18;5.17;;;4.40;;
2129;SDS011;1071;52.544;13.374;2023-07-08T13:31:47;4.40;;;4.00;;
2129;SDS011;1071;52.544;13.374;2023-07-08T13:34:20;4.80;;;4.50;;
2129;SDS011;1071;52.544;13.374;2023-07-08T13:36:50;4.30;;;4.00;;
2129;SDS011;1071;52.544;13.374;2023-07-08T13:39:19;3.60;;;3.30;;
2129;SDS011;1071;52.544;13.374;2023-07-08T13:41:53;3.87;;;3.57;;
2129;SDS011;1071;52.544;13.374;2023-07-08T13:44:22;4.27;;;3.80;;
2129;SDS011;1071;52.544;13.374;2023-07-08T13:46:53;3.80;;;3.50;;
2129;SDS011;1071;52.544;13.374;2023-07-08T13:49:24;5.80;;;4.20;;
2129;SDS011;1071;52.544;13.374;2023-07-08T13:52:03;4.73;;;4.20;;
2129;SDS011;1071;52.544;13.374;2023-07-08T13:54:33;4.63;;;4.33;;
2129;SDS011;1071;52.544;13.374;2023-07-08T13:57:08;5.03;;;4.63;;
2129;SDS011;1071;52.544;13.374;2023-07-08T13:59:37;4.93;;;4.43;;
2129;SDS011;1071;52.544;13.374;2023-07-08T14:02:12;3.53;;;3.33;;
2129;SDS011;1071;52.544;13.374;2023-07-08T14:04:41;4.50;;;4.10;;
2129;SDS011;1071;52.544;13.374;2023-07-08T14:07:09;4.00;;;3.70;;
2129;SDS011;1071;52.544;13.374;2023-07-08T14:09:41;4.00;;;3.70;;
2129;SDS011;1071;52.544;13.374;2023-07-08T14:12:08;4.60;;;4.30;;
2129;SDS011;1071;52.544;13.374;2023-07-08T14:14:35;4.37;;;4.07;;
2129;SDS011;1071;52.544;13.374;2023-07-08T14:17:03;4.77;;;4.37;;
2129;SDS011;1071;52.544;13.374;2023-07-08T14:19:32;4.50;;;4.17;;
2129;SDS011;1071;52.544;13.374;2023-07-08T14:22:01;4.70;;;4.17;;
2129;SDS011;1071;52.544;13.374;2023-07-08T14:24:46;4.40;;;4.03;;
2129;SDS011;1071;52.544;13.374;2023-07-08T14:27:13;4.27;;;3.97;;
2129;SDS011;1071;52.544;13.374;2023-07-08T14:29:41;4.13;;;3.80;;
2129;SDS011;1071;52.544;13.374;2023-07-08T14:32:12;4.00;;;3.73;;
2129;SDS011;1071;52.544;13.374;2023-07-08T14:34:40;3.90;;;3.60;;
2129;SDS011;1071;52.544;13.374;2023-07-08T14:37:10;4.20;;;3.80;;
2129;SDS011;1071;52.544;13.374;2023-07-08T14:39:40;4.87;;;3.77;;
2129;SDS011;1071;52.544;13.374;2023-07-08T14:42:08;3.60;;;3.40;;
2129;SDS011;1071;52.544;13.374;2023-07-08T14:44:37;4.10;;;3.80;;
2129;SDS011;1071;52.544;13.374;2023-07-08T14:47:07;3.93;;;3.63;;
2129;SDS011;1071;52.544;13.374;2023-07-08T14:49:37;4.90;;;4.50;;
2129;SDS011;1071;52.544;13.374;2023-07-08T14:52:05;4.83;;;4.43;;
2129;SDS011;1071;52.544;13.374;2023-07-08T14:54:32;4.10;;;3.80;;
2129;SDS011;1071;52.544;13.374;2023-07-08T14:56:59;3.60;;;3.40;;
2129;SDS011;1071;52.544;13.374;2023-07-08T14:59:30;4.47;;;4.07;;
2129;SDS011;1071;52.544;13.374;2023-07-08T15:01:59;4.30;;;3.50;;
2129;SDS011;1071;52.544;13.374;2023-07-08T15:04:28;4.97;;;4.57;;
2129;SDS011;1071;52.544;13.374;2023-07-08T15:06:57;4.90;;;4.50;;
2129;SDS011;1071;52.544;13.374;2023-07-08T15:09:26;4.17;;;3.77;;
2129;SDS011;1071;52.544;13.374;2023-07-08T15:11:56;4.23;;;3.87;;
2129;SDS011;1071;52.544;13.374;2023-07-08T15:14:24;4.00;;;3.80;;
2129;SDS011;1071;52.544;13.374;2023-07-08T15:16:52;4.23;;;3.87;;
2129;SDS011;1071;52.544;13.374;2023-07-08T15:19:20;4.00;;;3.60;;